Time;durP1;ratioP1;P1;durP2;ratioP2;P2;SDS_P1;SDS_P2;PMS_P1;PMS_P2;Temp;Humidity;BMP_temperature;BMP_pressure;BME280_temperature;BME280_humidity;BME280_pressure;Samples;Min_cycle;Max_cycle;Signal;HPM_P1;HPM_P2
2021/07/14 00:01:43;;;;;;;4.70;2.03;;;17.10;99.90;;;;;;4957100;29;20471;-64
2021/07/14 00:04:09;;;;;;;2.83;2.63;;;17.10;99.90;;;;;;4955285;29;20178;-64
2021/07/14 00:06:35;;;;;;;2.40;2.20;;;17.10;99.90;;;;;;4954684;29;20694;-64
2021/07/14 00:09:01;;;;;;;3.37;2.53;;;17.10;99.90;;;;;;4941830;29;20171;-64
2021/07/14 00:11:28;;;;;;;3.90;3.13;;;17.10;99.90;;;;;;4957427;29;20415;-64
2021/07/14 00:14:04;;;;;;;4.47;2.93;;;17.10;99.90;;;;;;4958075;28;20579;-64
2021/07/14 00:24:32;;;;;;;3.03;2.77;;;17.10;99.90;;;;;;4957242;28;20409;-63
2021/07/14 00:26:57;;;;;;;3.30;3.10;;;17.10;99.90;;;;;;4954749;29;20477;-64
2021/07/14 00:29:23;;;;;;;3.50;2.57;;;17.00;99.90;;;;;;4956728;28;20651;-65
2021/07/14 00:31:49;;;;;;;3.40;2.43;;;17.10;99.90;;;;;;4956759;29;20235;-64
2021/07/14 00:34:14;;;;;;;3.70;3.00;;;17.10;99.90;;;;;;4956769;29;20216;-65
2021/07/14 00:36:40;;;;;;;3.33;2.70;;;17.10;99.90;;;;;;4957295;29;20188;-65
2021/07/14 00:39:05;;;;;;;3.63;3.00;;;17.10;99.90;;;;;;4956778;29;20204;-65
2021/07/14 00:41:31;;;;;;;4.73;2.63;;;17.00;99.90;;;;;;4954986;29;20268;-65
2021/07/14 00:43:57;;;;;;;4.10;3.17;;;17.00;99.90;;;;;;4957136;29;20170;-64
2021/07/14 00:46:26;;;;;;;3.13;2.80;;;16.90;99.90;;;;;;4956895;28;20200;-64
2021/07/14 00:48:55;;;;;;;3.03;2.80;;;16.80;99.90;;;;;;4956727;28;20645;-64
2021/07/14 00:51:21;;;;;;;3.40;2.63;;;16.90;99.90;;;;;;4956848;28;20485;-64
2021/07/14 00:53:47;;;;;;;3.57;2.73;;;16.90;99.90;;;;;;4955521;28;20459;-65
2021/07/14 00:56:13;;;;;;;6.33;2.80;;;16.90;99.90;;;;;;4956243;28;20774;-64
2021/07/14 00:58:39;;;;;;;4.80;3.43;;;16.80;99.90;;;;;;4956409;29;20264;-63
2021/07/14 01:01:04;;;;;;;2.93;2.43;;;16.80;99.90;;;;;;4956661;28;20174;-63
2021/07/14 01:03:36;;;;;;;2.80;2.60;;;16.70;99.90;;;;;;4956307;29;20176;-64
2021/07/14 01:06:03;;;;;;;7.83;3.40;;;16.50;99.90;;;;;;4949702;28;20205;-64
2021/07/14 01:09:06;;;;;;;3.63;3.33;;;16.50;99.90;;;;;;4955179;28;20442;-64
2021/07/14 01:11:33;;;;;;;3.37;3.07;;;16.50;99.90;;;;;;4947157;28;20397;-64
2021/07/14 01:14:06;;;;;;;2.93;2.70;;;16.40;99.90;;;;;;4937253;29;20428;-64
2021/07/14 01:16:43;;;;;;;3.03;2.73;;;16.50;99.90;;;;;;4937199;29;20541;-64
2021/07/14 01:19:46;;;;;;;3.30;2.90;;;16.40;99.90;;;;;;4946202;29;20788;-63
2021/07/14 01:22:20;;;;;;;3.67;3.37;;;16.40;99.90;;;;;;4956114;28;20763;-63
2021/07/14 01:24:56;;;;;;;3.30;3.00;;;16.40;99.90;;;;;;4938328;28;20408;-63
2021/07/14 01:27:23;;;;;;;3.33;3.10;;;16.50;99.90;;;;;;4936869;29;20456;-64
2021/07/14 01:29:55;;;;;;;3.23;2.83;;;16.40;99.90;;;;;;4956133;28;20752;-64
2021/07/14 01:32:25;;;;;;;5.03;3.07;;;16.40;99.90;;;;;;4955881;28;20408;-64
2021/07/14 01:35:01;;;;;;;2.70;2.50;;;16.50;99.90;;;;;;4955706;28;20453;-64
2021/07/14 01:37:27;;;;;;;5.50;2.43;;;16.40;99.90;;;;;;4955781;28;20426;-64
2021/07/14 01:39:56;;;;;;;3.20;2.73;;;16.50;99.90;;;;;;4955786;28;20412;-64
2021/07/14 01:42:25;;;;;;;3.03;2.80;;;16.60;99.90;;;;;;4953774;28;20407;-64
2021/07/14 01:44:53;;;;;;;3.07;2.87;;;16.60;99.90;;;;;;4938869;28;20420;-64
2021/07/14 01:47:21;;;;;;;3.30;2.83;;;16.60;99.90;;;;;;4936410;29;20431;-64
2021/07/14 01:49:49;;;;;;;3.37;2.50;;;16.60;99.90;;;;;;4936168;29;20425;-64
2021/07/14 01:52:18;;;;;;;3.23;2.60;;;16.60;99.90;;;;;;4935956;29;20414;-64
2021/07/14 01:54:45;;;;;;;5.00;3.47;;;16.70;99.90;;;;;;4953533;29;20436;-64
2021/07/14 01:57:12;;;;;;;3.50;2.80;;;16.70;99.90;;;;;;4955475;28;20487;-63
2021/07/14 01:59:40;;;;;;;3.37;3.17;;;16.70;99.90;;;;;;4951409;28;20409;-65
2021/07/14 02:02:08;;;;;;;2.60;2.40;;;16.80;99.90;;;;;;4947488;29;20432;-64
2021/07/14 02:04:35;;;;;;;3.23;3.03;;;16.80;99.90;;;;;;4955500;28;20819;-64
2021/07/14 02:07:11;;;;;;;3.80;2.97;;;16.90;99.90;;;;;;4955187;28;20462;-64
2021/07/14 02:09:39;;;;;;;4.33;3.27;;;17.00;99.90;;;;;;4955149;28;20453;-64
2021/07/14 02:12:11;;;;;;;3.73;3.30;;;17.00;99.90;;;;;;4955441;28;20400;-64
2021/07/14 02:14:41;;;;;;;3.40;2.90;;;17.10;99.90;;;;;;4953866;28;20437;-64
2021/07/14 02:17:16;;;;;;;4.93;3.00;;;17.20;99.90;;;;;;4954932;28;20525;-64
2021/07/14 02:19:48;;;;;;;3.63;2.60;;;17.20;99.90;;;;;;4955133;28;20471;-64
2021/07/14 02:22:13;;;;;;;4.43;3.07;;;17.10;99.90;;;;;;4953795;28;20388;-64
2021/07/14 02:24:39;;;;;;;3.17;2.87;;;17.20;99.90;;;;;;4954717;29;20474;-64
2021/07/14 02:27:06;;;;;;;3.70;3.10;;;17.20;99.90;;;;;;4954897;29;20209;-65
2021/07/14 02:29:39;;;;;;;3.73;2.80;;;17.10;99.90;;;;;;4953233;28;20174;-64
2021/07/14 02:32:06;;;;;;;4.77;3.20;;;17.10;99.90;;;;;;4954943;28;20412;-65
2021/07/14 02:34:33;;;;;;;3.70;2.90;;;17.10;99.90;;;;;;4954902;28;20400;-64
2021/07/14 02:37:02;;;;;;;4.03;3.30;;;17.10;99.90;;;;;;4953033;29;20446;-64
2021/07/14 02:39:28;;;;;;;4.47;3.00;;;17.10;99.90;;;;;;4955186;28;20488;-65
2021/07/14 02:42:06;;;;;;;3.83;2.87;;;17.00;99.90;;;;;;4954691;28;20496;-64
2021/07/14 02:44:38;;;;;;;3.50;3.20;;;17.10;99.90;;;;;;4954247;29;20422;-65
2021/07/14 02:47:04;;;;;;;2.80;2.60;;;17.20;99.90;;;;;;4955524;28;20421;-64
2021/07/14 02:49:32;;;;;;;7.70;3.13;;;17.10;99.90;;;;;;4954817;28;20782;-64
2021/07/14 02:51:59;;;;;;;5.77;2.90;;;17.10;99.90;;;;;;4957395;28;20985;-64
2021/07/14 02:54:28;;;;;;;3.13;2.83;;;17.00;99.90;;;;;;4957222;29;20500;-64
2021/07/14 02:57:02;;;;;;;3.47;2.57;;;17.10;99.90;;;;;;4958354;28;20421;-64
2021/07/14 02:59:38;;;;;;;3.60;3.27;;;17.10;99.90;;;;;;4953591;28;20432;-63
2021/07/14 03:02:04;;;;;;;2.60;2.40;;;17.10;99.90;;;;;;4939613;29;20386;-64
2021/07/14 03:04:40;;;;;;;3.40;3.10;;;17.20;99.90;;;;;;4939359;29;20409;-64
2021/07/14 03:07:09;;;;;;;4.37;3.07;;;17.20;99.90;;;;;;4939308;29;20449;-64
2021/07/14 03:09:39;;;;;;;3.50;3.20;;;17.10;99.90;;;;;;4939754;29;20468;-64
2021/07/14 03:12:16;;;;;;;2.80;2.60;;;17.10;99.90;;;;;;4943294;29;20499;-63
2021/07/14 03:14:50;;;;;;;3.00;2.63;;;17.10;99.90;;;;;;4958625;28;20811;-63
2021/07/14 03:17:17;;;;;;;3.17;2.97;;;17.10;99.90;;;;;;4958055;28;20453;-64
2021/07/14 03:19:45;;;;;;;3.60;3.30;;;17.00;99.90;;;;;;4958569;28;20741;-64
2021/07/14 03:22:11;;;;;;;3.10;2.80;;;17.00;99.90;;;;;;4956464;28;20433;-64
2021/07/14 03:24:40;;;;;;;2.97;2.77;;;17.10;99.90;;;;;;4957940;28;20424;-64
2021/07/14 03:27:08;;;;;;;3.60;2.80;;;17.10;99.90;;;;;;4957902;28;20492;-64
2021/07/14 03:29:34;;;;;;;5.57;3.73;;;17.10;99.90;;;;;;4959019;28;20969;-64
2021/07/14 03:32:03;;;;;;;3.67;3.37;;;17.10;99.90;;;;;;4958504;28;20417;-64
2021/07/14 03:34:30;;;;;;;3.93;3.53;;;17.20;99.90;;;;;;4958009;28;20405;-64
2021/07/14 03:36:57;;;;;;;3.40;3.10;;;17.10;99.90;;;;;;4957570;28;20432;-64
2021/07/14 03:39:23;;;;;;;4.00;3.27;;;17.20;99.90;;;;;;4957574;28;20413;-64
2021/07/14 03:41:51;;;;;;;3.40;3.10;;;17.20;99.90;;;;;;4956191;28;20927;-63
2021/07/14 03:44:18;;;;;;;5.10;2.97;;;17.30;99.90;;;;;;4946521;28;20412;-64
2021/07/14 03:46:44;;;;;;;3.13;2.83;;;17.30;99.90;;;;;;4938684;29;20466;-64
2021/07/14 03:49:14;;;;;;;2.90;2.53;;;17.40;99.90;;;;;;4949149;29;20977;-64
2021/07/14 03:51:41;;;;;;;5.27;3.00;;;17.30;99.90;;;;;;4957390;28;20457;-63
2021/07/14 03:54:07;;;;;;;3.10;2.90;;;17.30;99.90;;;;;;4957418;28;20408;-65
2021/07/14 03:56:33;;;;;;;5.20;2.70;;;17.40;99.90;;;;;;4955802;28;20956;-65
2021/07/14 03:59:01;;;;;;;3.50;3.03;;;17.30;99.90;;;;;;4950833;28;20429;-65
2021/07/14 04:01:27;;;;;;;3.07;2.87;;;17.30;99.90;;;;;;4956196;29;20815;-65
2021/07/14 04:03:54;;;;;;;3.93;3.50;;;17.40;99.90;;;;;;4951184;28;20426;-65
2021/07/14 04:06:21;;;;;;;3.80;3.07;;;17.30;99.90;;;;;;4936310;29;20947;-65
2021/07/14 04:09:16;;;;;;;4.10;2.60;;;17.30;99.90;;;;;;4938074;29;20453;-65
2021/07/14 04:11:42;;;;;;;4.47;2.63;;;17.20;99.90;;;;;;4935826;29;20465;-65
2021/07/14 04:14:07;;;;;;;3.50;3.30;;;17.20;99.90;;;;;;4937924;29;20413;-65
2021/07/14 04:16:33;;;;;;;3.67;3.37;;;17.20;99.90;;;;;;4937076;29;20458;-65
2021/07/14 04:19:00;;;;;;;4.27;3.53;;;17.10;99.90;;;;;;4950994;29;20269;-65
2021/07/14 04:21:26;;;;;;;3.97;3.47;;;17.10;99.90;;;;;;4956683;28;20457;-65
2021/07/14 04:23:51;;;;;;;3.90;3.60;;;17.00;99.90;;;;;;4946568;29;20421;-65
2021/07/14 04:26:17;;;;;;;3.33;3.03;;;17.00;99.90;;;;;;4941320;29;20968;-65
2021/07/14 04:28:43;;;;;;;3.23;2.63;;;16.90;99.90;;;;;;4956850;29;20238;-64
2021/07/14 04:31:08;;;;;;;3.53;2.70;;;17.00;99.90;;;;;;4956760;29;20630;-64
2021/07/14 04:33:35;;;;;;;5.30;2.80;;;17.10;99.90;;;;;;4956742;29;20187;-64
2021/07/14 04:36:00;;;;;;;3.13;2.93;;;17.20;99.90;;;;;;4954231;28;20184;-64
2021/07/14 04:38:26;;;;;;;2.63;2.43;;;17.30;99.90;;;;;;4957257;29;20968;-64
2021/07/14 04:40:52;;;;;;;3.50;3.20;;;17.40;99.90;;;;;;4957187;28;20242;-64
2021/07/14 04:43:18;;;;;;;3.73;3.43;;;17.40;99.90;;;;;;4954827;29;20273;-64
2021/07/14 04:45:43;;;;;;;3.80;2.80;;;17.20;99.90;;;;;;4956225;29;20548;-64
2021/07/14 04:48:09;;;;;;;3.37;3.07;;;17.40;99.90;;;;;;4956159;29;20213;-64
2021/07/14 04:50:35;;;;;;;3.43;3.20;;;17.40;99.90;;;;;;4956227;28;20206;-64
2021/07/14 04:53:01;;;;;;;3.70;3.23;;;17.30;99.90;;;;;;4956231;28;20260;-64
2021/07/14 04:55:26;;;;;;;5.03;3.30;;;17.30;99.90;;;;;;4954451;29;20453;-63
2021/07/14 04:57:52;;;;;;;4.40;3.83;;;17.30;99.90;;;;;;4955989;29;20201;-65
2021/07/14 05:00:17;;;;;;;6.33;3.40;;;17.40;99.90;;;;;;4954108;29;20174;-65
2021/07/14 05:02:47;;;;;;;3.73;3.43;;;17.50;99.90;;;;;;4956395;29;20623;-64
2021/07/14 05:05:16;;;;;;;3.97;3.60;;;17.40;99.90;;;;;;4956155;28;20204;-64
2021/07/14 05:07:42;;;;;;;4.43;4.03;;;17.50;99.90;;;;;;4955798;28;20937;-65
2021/07/14 05:10:09;;;;;;;3.27;2.97;;;17.50;99.90;;;;;;4955596;28;20406;-64
2021/07/14 05:12:35;;;;;;;3.53;2.93;;;17.60;99.90;;;;;;4949232;28;20476;-64
2021/07/14 05:15:01;;;;;;;4.30;3.00;;;17.60;99.90;;;;;;4954840;28;20769;-65
2021/07/14 05:17:27;;;;;;;3.70;3.40;;;17.60;99.90;;;;;;4955787;28;20248;-64
2021/07/14 05:19:53;;;;;;;4.37;3.37;;;17.50;99.90;;;;;;4955676;29;20180;-64
2021/07/14 05:22:20;;;;;;;2.97;2.77;;;17.50;99.90;;;;;;4956569;28;20240;-64
2021/07/14 05:24:46;;;;;;;4.07;2.57;;;17.50;99.90;;;;;;4954108;28;20440;-64
2021/07/14 05:27:11;;;;;;;5.40;3.43;;;17.70;99.90;;;;;;4955366;29;20433;-64
2021/07/14 05:29:37;;;;;;;3.07;2.80;;;17.70;99.90;;;;;;4955236;29;20173;-64
2021/07/14 05:32:04;;;;;;;3.20;2.90;;;17.80;99.90;;;;;;4955487;29;20180;-64
2021/07/14 05:34:29;;;;;;;3.00;2.80;;;17.50;99.90;;;;;;4953484;28;20241;-64
2021/07/14 05:36:55;;;;;;;4.00;3.53;;;17.50;99.90;;;;;;4955649;28;20437;-64
2021/07/14 05:39:21;;;;;;;6.17;3.60;;;17.30;99.90;;;;;;4954983;29;20185;-64
2021/07/14 05:41:46;;;;;;;4.40;3.10;;;17.50;99.90;;;;;;4935588;29;20271;-65
2021/07/14 05:44:12;;;;;;;6.77;4.00;;;17.60;99.90;;;;;;4936021;29;20213;-65
2021/07/14 05:46:38;;;;;;;6.97;3.23;;;17.70;99.90;;;;;;4935718;29;20220;-63
2021/07/14 05:49:03;;;;;;;2.93;2.70;;;17.70;99.90;;;;;;4935418;29;20179;-64
2021/07/14 05:51:33;;;;;;;6.50;3.53;;;17.90;99.90;;;;;;4936670;29;20193;-64
2021/07/14 05:53:59;;;;;;;4.47;3.10;;;18.00;99.90;;;;;;4941380;29;20639;-65
2021/07/14 05:56:25;;;;;;;3.50;3.20;;;18.00;99.90;;;;;;4954958;28;20410;-64
2021/07/14 05:58:51;;;;;;;3.13;2.83;;;17.90;99.90;;;;;;4954970;28;21007;-63
2021/07/14 06:01:17;;;;;;;2.77;2.47;;;18.00;99.90;;;;;;4953704;29;20862;-64
2021/07/14 06:03:43;;;;;;;4.93;3.10;;;18.00;99.90;;;;;;4955268;29;20406;-65
2021/07/14 06:06:08;;;;;;;3.63;3.10;;;18.00;99.90;;;;;;4954828;28;20228;-65
2021/07/14 06:08:34;;;;;;;5.67;3.50;;;18.10;99.90;;;;;;4954958;29;20194;-65
2021/07/14 06:11:00;;;;;;;3.70;3.10;;;18.10;99.90;;;;;;4954686;29;20534;-65
2021/07/14 06:13:26;;;;;;;3.67;3.33;;;18.20;99.90;;;;;;4932152;29;20572;-64
2021/07/14 06:15:52;;;;;;;3.40;3.10;;;18.10;99.90;;;;;;4935791;29;20186;-64
2021/07/14 06:18:17;;;;;;;7.17;3.20;;;18.20;99.90;;;;;;4936272;29;20995;-63
2021/07/14 06:20:43;;;;;;;4.07;2.90;;;18.30;99.90;;;;;;4954963;29;20564;-64
2021/07/14 06:23:09;;;;;;;4.00;3.47;;;18.40;99.90;;;;;;4955006;29;20177;-63
2021/07/14 06:25:34;;;;;;;3.43;3.10;;;18.50;99.90;;;;;;4953660;28;20190;-65
2021/07/14 06:28:02;;;;;;;2.80;2.60;;;18.60;99.90;;;;;;4958615;29;20206;-64
2021/07/14 06:30:28;;;;;;;3.93;3.03;;;18.60;99.90;;;;;;4958702;28;20188;-64
2021/07/14 06:32:54;;;;;;;6.20;3.10;;;18.60;99.90;;;;;;4958991;28;20433;-65
2021/07/14 06:35:21;;;;;;;3.93;3.47;;;18.60;99.90;;;;;;4959018;29;20421;-64
2021/07/14 06:37:47;;;;;;;4.60;2.90;;;18.70;99.90;;;;;;4958649;28;20437;-64
2021/07/14 06:40:13;;;;;;;3.47;3.17;;;18.90;99.90;;;;;;4958511;28;20926;-64
2021/07/14 06:42:39;;;;;;;3.17;2.97;;;18.80;99.90;;;;;;4955681;29;20440;-64
2021/07/14 06:45:07;;;;;;;3.50;3.30;;;18.50;99.90;;;;;;4958481;28;20468;-65
2021/07/14 06:47:34;;;;;;;3.70;3.30;;;18.60;99.90;;;;;;4958469;28;20465;-64
2021/07/14 06:49:59;;;;;;;3.00;2.70;;;18.50;99.90;;;;;;4958724;28;20432;-64
2021/07/14 06:52:25;;;;;;;5.67;2.97;;;18.40;99.90;;;;;;4958599;29;20452;-65
2021/07/14 06:54:51;;;;;;;4.10;3.10;;;18.60;99.90;;;;;;4956409;29;20182;-64
2021/07/14 06:57:16;;;;;;;3.53;3.23;;;18.50;99.90;;;;;;4958254;29;20244;-64
2021/07/14 06:59:42;;;;;;;4.50;3.50;;;18.70;99.90;;;;;;4958309;29;20193;-64
2021/07/14 07:02:08;;;;;;;3.23;2.90;;;18.70;99.90;;;;;;4956272;29;20574;-65
2021/07/14 07:04:33;;;;;;;5.00;3.27;;;18.70;99.90;;;;;;4958359;29;20170;-65
2021/07/14 07:07:00;;;;;;;3.23;2.90;;;18.70;99.90;;;;;;4958197;28;20208;-64
2021/07/14 07:09:26;;;;;;;3.07;2.73;;;18.70;99.90;;;;;;4956915;28;20194;-65
2021/07/14 07:11:51;;;;;;;3.23;3.03;;;18.80;99.90;;;;;;4947199;29;20434;-65
2021/07/14 07:14:18;;;;;;;5.63;3.37;;;18.70;99.90;;;;;;4956104;29;20464;-64
2021/07/14 07:16:44;;;;;;;5.60;2.83;;;18.70;99.90;;;;;;4958081;28;20205;-64
2021/07/14 07:19:09;;;;;;;4.93;3.17;;;18.80;99.90;;;;;;4958199;28;20817;-64
2021/07/14 07:21:35;;;;;;;3.70;3.40;;;18.70;99.90;;;;;;4957798;29;20181;-66
2021/07/14 07:24:01;;;;;;;3.63;3.00;;;18.50;99.90;;;;;;4957861;28;20277;-65
2021/07/14 07:26:27;;;;;;;3.00;2.80;;;18.80;99.90;;;;;;4957899;28;20194;-64
2021/07/14 07:29:03;;;;;;;3.40;3.03;;;18.80;99.90;;;;;;4957664;28;20962;-64
2021/07/14 07:31:32;;;;;;;3.23;2.97;;;18.90;99.90;;;;;;4957695;28;20394;-64
2021/07/14 07:33:58;;;;;;;3.47;3.17;;;18.90;99.90;;;;;;4957946;29;20755;-65
2021/07/14 07:36:25;;;;;;;2.77;2.57;;;19.00;99.90;;;;;;4953370;29;20453;-65
2021/07/14 07:38:51;;;;;;;4.80;2.80;;;19.00;99.90;;;;;;4937216;29;20442;-65
2021/07/14 07:41:19;;;;;;;4.03;2.90;;;19.10;99.90;;;;;;4938639;29;20415;-64
2021/07/14 07:43:44;;;;;;;3.90;2.97;;;19.30;99.90;;;;;;4938272;29;20647;-64
2021/07/14 07:46:10;;;;;;;3.93;2.73;;;19.40;99.90;;;;;;4937585;29;20452;-64
2021/07/14 07:48:36;;;;;;;2.80;2.60;;;19.40;99.90;;;;;;4938483;29;20677;-65
2021/07/14 07:51:04;;;;;;;3.20;2.90;;;19.20;99.90;;;;;;4938621;29;20189;-65
2021/07/14 07:53:29;;;;;;;4.30;2.97;;;18.90;99.90;;;;;;4945409;29;20421;-65
2021/07/14 07:55:55;;;;;;;2.67;2.47;;;18.70;99.90;;;;;;4957570;29;20413;-65
2021/07/14 07:58:21;;;;;;;5.87;3.40;;;18.70;99.90;;;;;;4957610;29;20201;-65
2021/07/14 08:00:47;;;;;;;2.97;2.77;;;18.80;99.90;;;;;;4955368;28;20174;-65
2021/07/14 08:03:13;;;;;;;3.40;3.10;;;19.00;99.90;;;;;;4957302;28;20271;-65
2021/07/14 08:05:40;;;;;;;4.53;3.00;;;19.00;99.90;;;;;;4957165;28;20456;-65
2021/07/14 08:08:05;;;;;;;3.83;3.13;;;18.80;99.90;;;;;;4957572;28;20430;-65
2021/07/14 08:10:31;;;;;;;5.10;2.80;;;18.90;99.90;;;;;;4957270;29;20897;-65
2021/07/14 08:12:57;;;;;;;5.43;3.10;;;19.00;99.90;;;;;;4955807;28;20542;-65
2021/07/14 08:15:23;;;;;;;2.97;2.70;;;19.10;99.90;;;;;;4956967;28;20787;-65
2021/07/14 08:17:48;;;;;;;5.43;2.83;;;19.20;99.90;;;;;;4956827;28;20241;-65
2021/07/14 08:20:14;;;;;;;3.03;2.77;;;19.30;99.90;;;;;;4957115;29;20178;-65
2021/07/14 08:22:40;;;;;;;3.47;3.00;;;19.30;99.90;;;;;;4956853;29;20182;-65
2021/07/14 08:25:08;;;;;;;4.50;2.83;;;19.30;99.90;;;;;;4956730;28;20193;-65
2021/07/14 08:27:34;;;;;;;3.40;3.10;;;19.30;99.90;;;;;;4955382;29;20462;-65
2021/07/14 08:30:00;;;;;;;3.20;2.90;;;19.40;99.90;;;;;;4954956;28;20446;-65
2021/07/14 08:32:27;;;;;;;3.10;2.70;;;19.50;99.90;;;;;;4956759;29;20401;-64
2021/07/14 08:34:53;;;;;;;2.87;2.67;;;19.40;99.90;;;;;;4956764;28;20234;-65
2021/07/14 08:37:19;;;;;;;3.37;3.03;;;19.20;99.90;;;;;;4954578;28;20446;-64
2021/07/14 08:39:45;;;;;;;10.10;3.37;;;19.30;99.90;;;;;;4956815;29;20414;-64
2021/07/14 08:42:14;;;;;;;7.03;3.23;;;19.50;99.90;;;;;;4956223;29;20218;-64
2021/07/14 08:44:41;;;;;;;5.87;3.00;;;19.60;99.90;;;;;;4955248;28;20363;-64
2021/07/14 08:47:08;;;;;;;3.50;3.20;;;19.60;99.90;;;;;;4956292;28;20508;-64
2021/07/14 08:49:36;;;;;;;4.20;2.80;;;19.50;99.90;;;;;;4956005;28;20414;-64
2021/07/14 08:52:03;;;;;;;4.37;3.03;;;19.70;99.90;;;;;;4956234;28;20750;-64
2021/07/14 08:54:29;;;;;;;3.03;2.80;;;19.90;99.90;;;;;;4954398;28;20797;-64
2021/07/14 08:56:55;;;;;;;3.40;2.73;;;20.00;99.90;;;;;;4955998;29;20422;-64
2021/07/14 08:59:21;;;;;;;2.77;2.57;;;20.10;99.90;;;;;;4956134;28;20202;-65
2021/07/14 09:01:47;;;;;;;2.87;2.67;;;20.10;99.90;;;;;;4956092;28;20185;-65
2021/07/14 09:04:14;;;;;;;5.30;3.20;;;20.10;99.90;;;;;;4956345;28;20418;-64
2021/07/14 09:06:39;;;;;;;3.20;2.73;;;20.20;99.90;;;;;;4956079;28;20453;-64
2021/07/14 09:09:06;;;;;;;3.30;3.00;;;19.90;99.90;;;;;;4955363;29;20934;-64
2021/07/14 09:11:58;;;;;;;3.83;3.40;;;19.80;99.90;;;;;;4954448;28;20185;-64
2021/07/14 09:14:33;;;;;;;3.90;3.10;;;20.10;99.90;;;;;;4956311;28;20398;-64
2021/07/14 09:17:24;;;;;;;3.30;3.00;;;20.30;99.90;;;;;;4948671;28;20492;-65
2021/07/14 09:20:01;;;;;;;3.87;3.17;;;20.50;99.90;;;;;;4953522;29;20427;-64
2021/07/14 09:22:30;;;;;;;2.80;2.60;;;20.60;99.90;;;;;;4950114;28;20439;-64
2021/07/14 09:24:56;;;;;;;3.33;3.03;;;20.90;99.90;;;;;;4936821;29;20990;-64
2021/07/14 09:27:27;;;;;;;4.27;2.83;;;21.00;99.90;;;;;;4935923;29;20430;-64
2021/07/14 09:30:10;;;;;;;3.50;2.90;;;20.90;99.90;;;;;;4936803;29;20754;-64
2021/07/14 09:32:59;;;;;;;3.70;2.90;;;20.70;99.90;;;;;;4936853;29;20410;-64
2021/07/14 09:35:28;;;;;;;4.53;3.63;;;20.70;99.90;;;;;;4940743;29;20833;-64
2021/07/14 09:37:57;;;;;;;3.87;3.50;;;20.80;99.90;;;;;;4936532;29;20460;-64
2021/07/14 09:40:23;;;;;;;4.13;2.70;;;20.90;99.90;;;;;;4936645;29;20413;-64
2021/07/14 09:43:04;;;;;;;4.43;3.47;;;20.70;99.90;;;;;;4936182;29;20414;-64
2021/07/14 09:45:54;;;;;;;4.70;3.60;;;20.70;99.90;;;;;;4936064;29;20443;-66
2021/07/14 09:48:25;;;;;;;3.60;3.00;;;20.60;99.90;;;;;;4925313;29;20431;-65
2021/07/14 09:50:57;;;;;;;5.03;3.13;;;20.90;99.90;;;;;;4936121;29;20490;-63
2021/07/14 09:53:26;;;;;;;4.03;3.10;;;21.00;99.90;;;;;;4948701;29;20422;-64
2021/07/14 09:55:55;;;;;;;3.93;2.97;;;21.20;99.90;;;;;;4955181;28;20437;-64
2021/07/14 09:58:24;;;;;;;3.33;3.03;;;21.60;99.90;;;;;;4955207;28;20437;-65
2021/07/14 10:00:54;;;;;;;6.23;3.10;;;21.70;99.90;;;;;;4954839;29;20837;-64
2021/07/14 10:03:27;;;;;;;3.13;2.50;;;21.80;99.90;;;;;;4955094;28;20413;-64
2021/07/14 10:06:12;;;;;;;3.83;2.93;;;22.00;99.90;;;;;;4955425;29;20479;-65
2021/07/14 10:08:38;;;;;;;3.27;3.00;;;22.20;99.90;;;;;;4954582;28;20432;-65
2021/07/14 10:11:22;;;;;;;2.90;2.57;;;21.50;99.90;;;;;;4949915;29;20920;-64
2021/07/14 10:13:53;;;;;;;4.37;2.80;;;21.60;99.90;;;;;;4936206;29;20395;-64
2021/07/14 10:16:20;;;;;;;3.43;2.70;;;21.70;99.90;;;;;;4935947;29;20422;-64
2021/07/14 10:18:58;;;;;;;2.37;2.17;;;21.80;99.90;;;;;;4937310;29;20458;-64
2021/07/14 10:21:24;;;;;;;3.77;2.70;;;22.00;99.90;;;;;;4935659;29;20926;-64
2021/07/14 10:23:49;;;;;;;2.70;2.33;;;22.20;99.90;;;;;;4952339;29;20413;-64
2021/07/14 10:26:16;;;;;;;2.90;2.70;;;22.40;99.90;;;;;;4955284;29;20198;-64
2021/07/14 10:28:44;;;;;;;2.40;2.20;;;22.50;99.90;;;;;;4955015;28;20170;-64
2021/07/14 10:31:11;;;;;;;4.37;2.43;;;22.50;99.90;;;;;;4955089;28;20441;-64
2021/07/14 10:33:39;;;;;;;3.43;2.27;;;22.40;99.90;;;;;;4954805;28;20406;-64
2021/07/14 10:36:07;;;;;;;3.30;2.30;;;22.50;99.90;;;;;;4952771;28;20431;-65
2021/07/14 10:38:33;;;;;;;2.47;2.23;;;22.30;99.90;;;;;;4954775;28;20460;-64
2021/07/14 10:41:01;;;;;;;2.97;2.50;;;22.80;99.90;;;;;;4954845;28;20413;-64
2021/07/14 10:43:30;;;;;;;3.63;2.50;;;22.70;99.90;;;;;;4952900;28;20433;-65
2021/07/14 10:45:56;;;;;;;3.00;2.70;;;22.90;99.90;;;;;;4955342;28;20464;-64
2021/07/14 10:48:23;;;;;;;2.27;2.07;;;23.20;99.90;;;;;;4954784;28;20433;-63
2021/07/14 10:50:51;;;;;;;2.60;2.20;;;23.10;99.90;;;;;;4954684;28;20177;-64
2021/07/14 10:53:17;;;;;;;2.50;2.10;;;23.40;99.90;;;;;;4955217;28;20917;-64
2021/07/14 10:55:47;;;;;;;1.73;1.60;;;23.10;99.90;;;;;;4953059;28;20438;-65
2021/07/14 10:58:19;;;;;;;3.93;2.10;;;23.20;99.90;;;;;;4954215;28;20433;-64
2021/07/14 11:00:47;;;;;;;2.40;2.20;;;23.30;99.90;;;;;;4954955;28;20875;-64
2021/07/14 11:03:40;;;;;;;2.20;1.80;;;23.60;99.90;;;;;;4954988;28;20421;-64
2021/07/14 11:06:10;;;;;;;2.10;1.90;;;24.00;99.90;;;;;;4945480;28;20469;-64
2021/07/14 11:09:02;;;;;;;1.83;1.70;;;24.20;99.90;;;;;;4954925;28;20935;-64
2021/07/14 11:11:29;;;;;;;4.07;2.00;;;24.20;99.90;;;;;;4941502;29;20497;-65
2021/07/14 11:14:05;;;;;;;3.47;1.80;;;23.90;99.90;;;;;;4938875;29;20935;-65
2021/07/14 11:16:35;;;;;;;6.10;2.10;;;24.00;99.90;;;;;;4938624;29;20805;-64
2021/07/14 11:19:15;;;;;;;4.87;1.60;;;24.20;99.90;;;;;;4939282;29;20386;-64
2021/07/14 11:22:02;;;;;;;1.47;1.37;;;24.20;99.90;;;;;;4938685;29;20391;-65
2021/07/14 11:24:41;;;;;;;5.60;2.77;;;24.70;99.90;;;;;;4938682;29;20402;-64
2021/07/14 11:27:22;;;;;;;2.83;1.80;;;25.10;99.90;;;;;;4951876;29;20465;-66
2021/07/14 11:29:55;;;;;;;2.90;1.67;;;25.70;99.90;;;;;;4956051;29;20431;-64
2021/07/14 11:35:07;;;;;;;1.83;1.53;;;25.60;99.90;;;;;;4957859;29;20414;-64
2021/07/14 11:37:35;;;;;;;1.23;1.13;;;26.40;99.40;;;;;;4957497;28;20425;-64
2021/07/14 11:40:19;;;;;;;1.73;1.23;;;27.40;99.10;;;;;;4957737;28;20458;-65
2021/07/14 11:43:01;;;;;;;4.77;1.50;;;27.30;95.60;;;;;;4957630;28;20451;-64
2021/07/14 11:45:38;;;;;;;2.00;1.90;;;27.70;97.80;;;;;;4946720;28;20458;-65
2021/07/14 11:48:09;;;;;;;1.87;1.17;;;27.50;95.60;;;;;;4938382;29;20426;-66
2021/07/14 11:50:58;;;;;;;1.30;1.20;;;27.30;95.00;;;;;;4938393;29;20406;-65
2021/07/14 11:56:02;;;;;;;1.43;1.33;;;26.60;94.90;;;;;;4957885;29;20456;-64
2021/07/14 11:58:47;;;;;;;1.57;1.40;;;26.20;97.20;;;;;;4957213;28;20520;-64
2021/07/14 12:01:21;;;;;;;1.77;1.37;;;26.40;96.80;;;;;;4955615;28;20500;-65
2021/07/14 12:04:01;;;;;;;1.23;1.13;;;26.20;96.60;;;;;;4957275;29;20503;-65
2021/07/14 12:06:48;;;;;;;1.60;1.50;;;25.60;95.90;;;;;;4957308;29;20457;-65
2021/07/14 12:09:13;;;;;;;2.27;1.63;;;25.70;96.40;;;;;;4952742;29;20918;-64
2021/07/14 12:11:40;;;;;;;1.93;1.80;;;25.90;96.20;;;;;;4953720;29;20429;-64
2021/07/14 12:14:05;;;;;;;3.50;1.00;;;26.30;96.20;;;;;;4957076;28;20178;-65
2021/07/14 12:16:31;;;;;;;1.27;1.17;;;26.50;97.30;;;;;;4940721;29;20947;-64
2021/07/14 12:18:59;;;;;;;2.77;1.23;;;26.50;96.40;;;;;;4937738;29;20600;-65
2021/07/14 12:21:39;;;;;;;1.37;1.20;;;26.20;97.20;;;;;;4937790;29;20514;-65
2021/07/14 12:24:06;;;;;;;2.37;1.10;;;26.30;97.50;;;;;;4937198;29;20407;-65
2021/07/14 12:26:32;;;;;;;1.40;1.30;;;26.30;96.30;;;;;;4941506;29;20464;-65
2021/07/14 12:28:58;;;;;;;1.30;1.17;;;26.80;95.40;;;;;;4939166;28;20434;-64
2021/07/14 12:31:24;;;;;;;1.70;1.30;;;27.10;95.60;;;;;;4937587;29;20411;-63
2021/07/14 12:33:54;;;;;;;1.37;1.20;;;26.90;95.00;;;;;;4937526;29;20258;-67
2021/07/14 12:36:21;;;;;;;1.33;1.23;;;26.70;95.00;;;;;;4945153;29;20484;-65
2021/07/14 12:38:54;;;;;;;1.30;1.10;;;26.20;94.80;;;;;;4956553;28;20902;-65
2021/07/14 12:41:23;;;;;;;2.13;1.60;;;26.40;95.30;;;;;;4956537;28;20410;-65
2021/07/14 12:44:07;;;;;;;1.33;1.10;;;26.20;95.20;;;;;;4957177;28;20418;-66
2021/07/14 12:46:33;;;;;;;1.30;1.20;;;26.00;95.30;;;;;;4956653;28;20445;-64
2021/07/14 12:49:13;;;;;;;2.80;1.13;;;26.50;96.50;;;;;;4954717;29;20779;-63
2021/07/14 12:51:39;;;;;;;1.40;1.30;;;26.80;97.40;;;;;;4956344;28;20264;-64
2021/07/14 12:54:05;;;;;;;1.23;1.13;;;27.10;95.40;;;;;;4956013;28;20821;-65
2021/07/14 12:56:30;;;;;;;2.10;1.40;;;26.10;95.40;;;;;;4953131;29;20656;-65
2021/07/14 12:59:14;;;;;;;1.50;1.17;;;25.90;96.30;;;;;;4956058;29;20249;-65
2021/07/14 13:01:44;;;;;;;1.40;1.30;;;25.70;96.50;;;;;;4956435;29;20794;-65
2021/07/14 13:04:14;;;;;;;1.83;1.50;;;25.70;97.30;;;;;;4948884;28;20458;-65
2021/07/14 13:06:41;;;;;;;1.23;1.13;;;26.20;97.20;;;;;;4947837;29;20465;-65
2021/07/14 13:09:10;;;;;;;1.43;1.33;;;26.90;94.70;;;;;;4954869;29;20433;-65
2021/07/14 13:11:36;;;;;;;2.63;1.40;;;26.40;94.80;;;;;;4956150;28;20848;-64